sensor_id;sensor_type;location;lat;lon;timestamp;pressure;altitude;pressure_sealevel;temperature;humidity
58092;BME280;43896;48.178;11.578;2024-03-07T00:00:34;96193.41;;;6.74;71.00
58092;BME280;43896;48.178;11.578;2024-03-07T00:03:00;96173.75;;;6.59;71.02
58092;BME280;43896;48.178;11.578;2024-03-07T00:05:25;96188.34;;;6.62;71.88
58092;BME280;43896;48.178;11.578;2024-03-07T00:07:52;96203.50;;;6.79;70.84
58092;BME280;43896;48.178;11.578;2024-03-07T00:10:17;96189.56;;;6.57;71.98
58092;BME280;43896;48.178;11.578;2024-03-07T00:12:43;96204.56;;;6.76;71.47
58092;BME280;43896;48.178;11.578;2024-03-07T00:15:12;96198.25;;;6.47;72.41
58092;BME280;43896;48.178;11.578;2024-03-07T00:17:38;96201.84;;;6.67;71.97
58092;BME280;43896;48.178;11.578;2024-03-07T00:20:05;96195.13;;;6.64;71.78
58092;BME280;43896;48.178;11.578;2024-03-07T00:22:34;96202.59;;;6.69;71.70
58092;BME280;43896;48.178;11.578;2024-03-07T00:24:59;96174.53;;;6.38;71.70
58092;BME280;43896;48.178;11.578;2024-03-07T00:27:24;96165.41;;;6.33;72.23
58092;BME280;43896;48.178;11.578;2024-03-07T00:29:51;96141.38;;;6.07;72.64
58092;BME280;43896;48.178;11.578;2024-03-07T00:32:20;96173.91;;;6.46;72.23
58092;BME280;43896;48.178;11.578;2024-03-07T00:34:46;96173.28;;;6.54;72.02
58092;BME280;43896;48.178;11.578;2024-03-07T00:37:12;96178.72;;;6.30;72.95
58092;BME280;43896;48.178;11.578;2024-03-07T00:39:38;96161.97;;;6.32;72.75
58092;BME280;43896;48.178;11.578;2024-03-07T00:42:03;96194.88;;;6.67;71.68
58092;BME280;43896;48.178;11.578;2024-03-07T00:44:28;96207.38;;;6.52;72.09
58092;BME280;43896;48.178;11.578;2024-03-07T00:46:54;96154.06;;;6.11;73.15
58092;BME280;43896;48.178;11.578;2024-03-07T00:49:19;96195.22;;;6.63;71.74
58092;BME280;43896;48.178;11.578;2024-03-07T00:51:45;96191.72;;;6.52;72.00
58092;BME280;43896;48.178;11.578;2024-03-07T00:54:10;96196.63;;;6.67;72.03
58092;BME280;43896;48.178;11.578;2024-03-07T00:56:38;96166.25;;;6.33;72.45
58092;BME280;43896;48.178;11.578;2024-03-07T00:59:04;96157.97;;;6.49;72.49
58092;BME280;43896;48.178;11.578;2024-03-07T01:01:30;96177.63;;;6.32;73.60
58092;BME280;43896;48.178;11.578;2024-03-07T01:03:56;96183.22;;;6.60;72.78
58092;BME280;43896;48.178;11.578;2024-03-07T01:06:22;96174.97;;;6.55;73.27
58092;BME280;43896;48.178;11.578;2024-03-07T01:08:47;96143.84;;;6.52;71.66
58092;BME280;43896;48.178;11.578;2024-03-07T01:11:13;96165.28;;;6.67;72.00
58092;BME280;43896;48.178;11.578;2024-03-07T01:13:39;96158.41;;;6.66;72.29
58092;BME280;43896;48.178;11.578;2024-03-07T01:16:05;96170.94;;;6.72;72.11
58092;BME280;43896;48.178;11.578;2024-03-07T01:18:31;96171.69;;;6.74;72.56
58092;BME280;43896;48.178;11.578;2024-03-07T01:21:02;96167.47;;;6.83;72.26
58092;BME280;43896;48.178;11.578;2024-03-07T01:23:28;96156.69;;;6.76;72.00
58092;BME280;43896;48.178;11.578;2024-03-07T01:25:58;96153.84;;;6.79;71.93
58092;BME280;43896;48.178;11.578;2024-03-07T01:28:24;96131.88;;;6.70;71.48
58092;BME280;43896;48.178;11.578;2024-03-07T01:30:50;96144.56;;;6.75;72.27
58092;BME280;43896;48.178;11.578;2024-03-07T01:33:16;96127.97;;;6.65;71.95
58092;BME280;43896;48.178;11.578;2024-03-07T01:35:41;96143.28;;;6.69;72.30
58092;BME280;43896;48.178;11.578;2024-03-07T01:38:07;96162.94;;;6.85;72.44
58092;BME280;43896;48.178;11.578;2024-03-07T01:40:34;96157.84;;;6.51;74.38
58092;BME280;43896;48.178;11.578;2024-03-07T01:43:01;96159.75;;;6.81;73.20
58092;BME280;43896;48.178;11.578;2024-03-07T01:45:26;96133.16;;;6.76;72.94
58092;BME280;43896;48.178;11.578;2024-03-07T01:47:52;96123.22;;;6.70;73.01
58092;BME280;43896;48.178;11.578;2024-03-07T01:50:17;96131.13;;;6.80;72.33
58092;BME280;43896;48.178;11.578;2024-03-07T01:52:44;96071.31;;;6.44;72.15
58092;BME280;43896;48.178;11.578;2024-03-07T01:55:11;96139.03;;;6.89;72.51
58092;BME280;43896;48.178;11.578;2024-03-07T01:57:38;96135.56;;;6.14;74.60
58092;BME280;43896;48.178;11.578;2024-03-07T02:00:04;96137.47;;;6.45;73.96
58092;BME280;43896;48.178;11.578;2024-03-07T02:02:30;96133.34;;;6.63;73.76
58092;BME280;43896;48.178;11.578;2024-03-07T02:04:55;96097.00;;;6.60;73.21
58092;BME280;43896;48.178;11.578;2024-03-07T02:07:21;96108.28;;;6.82;72.72
58092;BME280;43896;48.178;11.578;2024-03-07T02:09:46;96107.66;;;6.68;73.57
58092;BME280;43896;48.178;11.578;2024-03-07T02:12:11;96117.94;;;6.81;72.54
58092;BME280;43896;48.178;11.578;2024-03-07T02:14:37;96081.31;;;6.60;73.21
58092;BME280;43896;48.178;11.578;2024-03-07T02:17:02;96115.66;;;6.34;75.11
58092;BME280;43896;48.178;11.578;2024-03-07T02:19:27;96099.13;;;6.66;73.71
58092;BME280;43896;48.178;11.578;2024-03-07T02:21:53;96095.34;;;6.59;72.95
58092;BME280;43896;48.178;11.578;2024-03-07T02:24:18;96118.25;;;6.88;73.33
58092;BME280;43896;48.178;11.578;2024-03-07T02:26:44;96113.13;;;6.44;74.07
58092;BME280;43896;48.178;11.578;2024-03-07T02:29:09;96112.97;;;5.70;75.96
58092;BME280;43896;48.178;11.578;2024-03-07T02:31:35;96086.28;;;5.66;78.18
58092;BME280;43896;48.178;11.578;2024-03-07T02:34:03;96099.91;;;5.58;78.84
58092;BME280;43896;48.178;11.578;2024-03-07T02:36:28;96083.00;;;5.07;78.33
58092;BME280;43896;48.178;11.578;2024-03-07T02:38:54;96058.91;;;5.60;77.19
58092;BME280;43896;48.178;11.578;2024-03-07T02:41:19;96076.38;;;5.81;75.17
58092;BME280;43896;48.178;11.578;2024-03-07T02:43:45;96071.88;;;5.05;78.08
58092;BME280;43896;48.178;11.578;2024-03-07T02:46:10;96071.97;;;6.04;75.87
58092;BME280;43896;48.178;11.578;2024-03-07T02:48:40;96074.06;;;5.67;75.78
58092;BME280;43896;48.178;11.578;2024-03-07T02:51:06;96100.41;;;5.41;79.63
58092;BME280;43896;48.178;11.578;2024-03-07T02:53:32;96096.88;;;5.42;80.02
58092;BME280;43896;48.178;11.578;2024-03-07T02:56:00;96099.75;;;6.05;77.28
58092;BME280;43896;48.178;11.578;2024-03-07T02:58:26;96081.09;;;5.10;79.76
58092;BME280;43896;48.178;11.578;2024-03-07T03:00:58;96098.16;;;5.48;79.65
58092;BME280;43896;48.178;11.578;2024-03-07T03:03:28;96099.50;;;5.19;81.03
58092;BME280;43896;48.178;11.578;2024-03-07T03:05:56;96083.59;;;5.22;80.05
58092;BME280;43896;48.178;11.578;2024-03-07T03:08:22;96034.66;;;4.81;78.52
58092;BME280;43896;48.178;11.578;2024-03-07T03:10:47;96072.00;;;5.04;80.21
58092;BME280;43896;48.178;11.578;2024-03-07T03:13:13;96032.47;;;4.41;80.17
58092;BME280;43896;48.178;11.578;2024-03-07T03:15:38;96083.34;;;4.80;79.98
58092;BME280;43896;48.178;11.578;2024-03-07T03:18:04;96073.28;;;5.43;78.46
58092;BME280;43896;48.178;11.578;2024-03-07T03:20:31;96097.81;;;5.07;79.28
58092;BME280;43896;48.178;11.578;2024-03-07T03:22:59;96057.75;;;4.85;79.69
58092;BME280;43896;48.178;11.578;2024-03-07T03:25:25;96072.09;;;5.02;80.08
58092;BME280;43896;48.178;11.578;2024-03-07T03:27:51;96079.38;;;5.76;76.99
58092;BME280;43896;48.178;11.578;2024-03-07T03:30:16;96102.69;;;5.00;77.87
58092;BME280;43896;48.178;11.578;2024-03-07T03:32:45;96088.28;;;4.72;79.64
58092;BME280;43896;48.178;11.578;2024-03-07T03:35:10;96067.00;;;5.12;78.07
58092;BME280;43896;48.178;11.578;2024-03-07T03:37:45;96095.22;;;5.18;77.59
58092;BME280;43896;48.178;11.578;2024-03-07T03:40:11;96068.31;;;5.06;76.84
58092;BME280;43896;48.178;11.578;2024-03-07T03:42:38;96098.16;;;4.91;78.39
58092;BME280;43896;48.178;11.578;2024-03-07T03:45:05;96084.53;;;5.44;77.28
58092;BME280;43896;48.178;11.578;2024-03-07T03:47:37;96102.06;;;5.31;78.09
58092;BME280;43896;48.178;11.578;2024-03-07T03:50:06;96086.94;;;5.24;77.03
58092;BME280;43896;48.178;11.578;2024-03-07T03:52:33;96081.94;;;5.21;77.63
58092;BME280;43896;48.178;11.578;2024-03-07T03:55:00;96093.75;;;5.59;77.08
58092;BME280;43896;48.178;11.578;2024-03-07T03:57:26;96100.59;;;4.70;77.12
58092;BME280;43896;48.178;11.578;2024-03-07T03:59:52;96063.56;;;4.89;76.64
58092;BME280;43896;48.178;11.578;2024-03-07T04:02:18;96089.25;;;4.71;77.58
58092;BME280;43896;48.178;11.578;2024-03-07T04:04:43;96096.94;;;4.73;78.20
58092;BME280;43896;48.178;11.578;2024-03-07T04:07:11;96076.53;;;4.44;78.48
58092;BME280;43896;48.178;11.578;2024-03-07T04:09:37;96095.03;;;4.63;77.96
58092;BME280;43896;48.178;11.578;2024-03-07T04:12:02;96088.03;;;4.53;79.05
58092;BME280;43896;48.178;11.578;2024-03-07T04:14:28;96070.53;;;5.22;76.42
58092;BME280;43896;48.178;11.578;2024-03-07T04:16:58;96063.78;;;5.08;75.45
58092;BME280;43896;48.178;11.578;2024-03-07T04:19:23;96083.44;;;5.47;75.52
58092;BME280;43896;48.178;11.578;2024-03-07T04:21:48;96062.50;;;5.37;73.81
58092;BME280;43896;48.178;11.578;2024-03-07T04:24:14;96023.84;;;4.40;75.77
58092;BME280;43896;48.178;11.578;2024-03-07T04:26:39;96085.22;;;5.57;72.86
58092;BME280;43896;48.178;11.578;2024-03-07T04:29:07;96093.31;;;5.20;74.17
58092;BME280;43896;48.178;11.578;2024-03-07T04:31:34;96055.59;;;4.57;77.11
58092;BME280;43896;48.178;11.578;2024-03-07T04:33:59;96106.81;;;5.03;76.35
58092;BME280;43896;48.178;11.578;2024-03-07T04:36:24;96040.13;;;5.00;73.94
58092;BME280;43896;48.178;11.578;2024-03-07T04:38:50;96028.34;;;4.49;75.45
58092;BME280;43896;48.178;11.578;2024-03-07T04:41:16;96043.81;;;4.28;76.88
58092;BME280;43896;48.178;11.578;2024-03-07T04:43:42;96064.69;;;4.51;76.70
58092;BME280;43896;48.178;11.578;2024-03-07T04:46:09;96076.69;;;4.29;77.79
58092;BME280;43896;48.178;11.578;2024-03-07T04:48:35;96099.59;;;4.13;78.47
58092;BME280;43896;48.178;11.578;2024-03-07T04:51:00;96060.59;;;4.24;77.16
58092;BME280;43896;48.178;11.578;2024-03-07T04:53:26;96052.34;;;4.30;76.71
58092;BME280;43896;48.178;11.578;2024-03-07T04:55:51;96073.97;;;3.96;77.00
58092;BME280;43896;48.178;11.578;2024-03-07T04:58:17;96051.03;;;4.25;75.68
58092;BME280;43896;48.178;11.578;2024-03-07T05:00:42;96087.72;;;4.80;74.89
58092;BME280;43896;48.178;11.578;2024-03-07T05:03:07;96080.28;;;5.32;72.00
58092;BME280;43896;48.178;11.578;2024-03-07T05:05:33;96062.59;;;5.24;71.95
58092;BME280;43896;48.178;11.578;2024-03-07T05:07:58;96074.91;;;5.44;71.86
58092;BME280;43896;48.178;11.578;2024-03-07T05:10:23;96072.81;;;5.16;72.14
58092;BME280;43896;48.178;11.578;2024-03-07T05:12:49;96098.47;;;5.77;70.07
58092;BME280;43896;48.178;11.578;2024-03-07T05:15:15;96080.84;;;5.47;70.15
58092;BME280;43896;48.178;11.578;2024-03-07T05:17:41;96099.41;;;4.74;73.17
58092;BME280;43896;48.178;11.578;2024-03-07T05:20:08;96103.84;;;4.96;73.57
58092;BME280;43896;48.178;11.578;2024-03-07T05:22:38;96099.19;;;4.77;73.29
58092;BME280;43896;48.178;11.578;2024-03-07T05:25:12;96049.47;;;4.80;73.02
58092;BME280;43896;48.178;11.578;2024-03-07T05:27:37;96064.25;;;5.48;70.30
58092;BME280;43896;48.178;11.578;2024-03-07T05:30:03;96095.31;;;5.39;71.35
58092;BME280;43896;48.178;11.578;2024-03-07T05:32:34;96109.03;;;5.75;69.25
58092;BME280;43896;48.178;11.578;2024-03-07T05:34:59;96115.16;;;6.08;68.46
58092;BME280;43896;48.178;11.578;2024-03-07T05:37:25;96084.03;;;5.61;68.87
58092;BME280;43896;48.178;11.578;2024-03-07T05:39:51;96099.41;;;5.87;68.39
58092;BME280;43896;48.178;11.578;2024-03-07T05:42:17;96091.53;;;4.40;73.03
58092;BME280;43896;48.178;11.578;2024-03-07T05:44:43;96118.94;;;4.22;74.31
58092;BME280;43896;48.178;11.578;2024-03-07T05:47:09;96081.78;;;4.31;74.32
58092;BME280;43896;48.178;11.578;2024-03-07T05:49:35;96099.41;;;4.63;72.68
58092;BME280;43896;48.178;11.578;2024-03-07T05:52:02;96119.03;;;4.20;74.11
58092;BME280;43896;48.178;11.578;2024-03-07T05:54:28;96103.47;;;4.31;72.79
58092;BME280;43896;48.178;11.578;2024-03-07T05:56:54;96116.16;;;4.12;73.73
58092;BME280;43896;48.178;11.578;2024-03-07T05:59:20;96110.16;;;4.23;73.17
58092;BME280;43896;48.178;11.578;2024-03-07T06:01:46;96108.47;;;4.46;72.26
58092;BME280;43896;48.178;11.578;2024-03-07T06:04:12;96108.13;;;4.97;70.01
58092;BME280;43896;48.178;11.578;2024-03-07T06:06:38;96112.59;;;4.84;70.86
58092;BME280;43896;48.178;11.578;2024-03-07T06:09:05;96101.84;;;5.22;68.95
58092;BME280;43896;48.178;11.578;2024-03-07T06:11:37;96074.44;;;5.39;68.22
58092;BME280;43896;48.178;11.578;2024-03-07T06:14:04;96103.50;;;5.57;68.42
58092;BME280;43896;48.178;11.578;2024-03-07T06:16:31;96116.97;;;4.95;70.72
58092;BME280;43896;48.178;11.578;2024-03-07T06:19:00;96083.06;;;4.72;71.31
58092;BME280;43896;48.178;11.578;2024-03-07T06:21:27;96116.31;;;5.26;78.02
58092;BME280;43896;48.178;11.578;2024-03-07T06:23:53;96088.00;;;5.11;71.86
58092;BME280;43896;48.178;11.578;2024-03-07T06:26:25;96096.53;;;4.55;71.32
58092;BME280;43896;48.178;11.578;2024-03-07T06:29:03;96070.28;;;4.58;71.69
58092;BME280;43896;48.178;11.578;2024-03-07T06:31:30;96053.03;;;4.32;71.58
58092;BME280;43896;48.178;11.578;2024-03-07T06:33:56;96101.94;;;5.55;69.41
58092;BME280;43896;48.178;11.578;2024-03-07T06:36:22;96090.53;;;5.78;67.63
58092;BME280;43896;48.178;11.578;2024-03-07T06:38:48;96064.81;;;5.62;67.48
58092;BME280;43896;48.178;11.578;2024-03-07T06:41:13;96107.00;;;5.79;67.94
58092;BME280;43896;48.178;11.578;2024-03-07T06:43:39;96103.09;;;5.85;67.43
58092;BME280;43896;48.178;11.578;2024-03-07T06:46:04;96088.44;;;5.04;69.80
58092;BME280;43896;48.178;11.578;2024-03-07T06:48:31;96109.41;;;5.59;68.56
58092;BME280;43896;48.178;11.578;2024-03-07T06:50:57;96107.97;;;5.67;68.72
58092;BME280;43896;48.178;11.578;2024-03-07T06:53:22;96047.56;;;5.16;68.56
58092;BME280;43896;48.178;11.578;2024-03-07T06:55:51;96115.50;;;5.26;70.43
58092;BME280;43896;48.178;11.578;2024-03-07T06:58:21;96107.41;;;5.40;69.23
58092;BME280;43896;48.178;11.578;2024-03-07T07:00:48;96080.66;;;5.16;68.53
58092;BME280;43896;48.178;11.578;2024-03-07T07:03:17;96088.81;;;5.34;68.67
58092;BME280;43896;48.178;11.578;2024-03-07T07:05:43;96084.13;;;5.71;67.02
58092;BME280;43896;48.178;11.578;2024-03-07T07:08:10;96114.19;;;6.09;66.98
58092;BME280;43896;48.178;11.578;2024-03-07T07:10:36;96087.00;;;5.57;67.30
58092;BME280;43896;48.178;11.578;2024-03-07T07:13:02;96085.38;;;5.11;68.97
58092;BME280;43896;48.178;11.578;2024-03-07T07:15:29;96111.75;;;5.74;67.05
58092;BME280;43896;48.178;11.578;2024-03-07T07:17:55;96111.56;;;5.09;69.89
58092;BME280;43896;48.178;11.578;2024-03-07T07:20:20;96102.44;;;4.92;70.15
58092;BME280;43896;48.178;11.578;2024-03-07T07:22:47;96118.75;;;5.73;67.28
58092;BME280;43896;48.178;11.578;2024-03-07T07:25:13;96074.28;;;5.75;66.56
58092;BME280;43896;48.178;11.578;2024-03-07T07:27:46;96109.78;;;6.21;65.83
58092;BME280;43896;48.178;11.578;2024-03-07T07:30:14;96113.31;;;6.20;65.51
58092;BME280;43896;48.178;11.578;2024-03-07T07:32:40;96095.00;;;5.88;66.34
58092;BME280;43896;48.178;11.578;2024-03-07T07:35:07;96120.03;;;6.01;66.66
58092;BME280;43896;48.178;11.578;2024-03-07T07:37:35;96094.19;;;5.87;66.20
58092;BME280;43896;48.178;11.578;2024-03-07T07:40:02;96041.13;;;5.54;66.70
58092;BME280;43896;48.178;11.578;2024-03-07T07:42:28;96097.34;;;5.47;67.61
58092;BME280;43896;48.178;11.578;2024-03-07T07:44:53;96054.19;;;5.20;67.18
58092;BME280;43896;48.178;11.578;2024-03-07T07:47:21;96106.19;;;5.78;67.22
58092;BME280;43896;48.178;11.578;2024-03-07T07:49:47;96069.63;;;5.35;67.70
58092;BME280;43896;48.178;11.578;2024-03-07T07:52:13;96015.09;;;4.86;67.80
58092;BME280;43896;48.178;11.578;2024-03-07T07:54:42;96100.19;;;5.10;68.26
58092;BME280;43896;48.178;11.578;2024-03-07T07:57:08;96069.66;;;5.67;66.92
58092;BME280;43896;48.178;11.578;2024-03-07T07:59:34;96058.78;;;5.51;67.33
58092;BME280;43896;48.178;11.578;2024-03-07T08:01:59;96092.13;;;5.47;67.46
58092;BME280;43896;48.178;11.578;2024-03-07T08:04:25;96075.38;;;5.50;68.29
58092;BME280;43896;48.178;11.578;2024-03-07T08:06:50;96100.44;;;5.30;67.37
58092;BME280;43896;48.178;11.578;2024-03-07T08:09:16;96077.63;;;4.64;69.78
58092;BME280;43896;48.178;11.578;2024-03-07T08:11:42;96113.25;;;4.63;71.28
58092;BME280;43896;48.178;11.578;2024-03-07T08:14:08;96070.97;;;5.61;68.19
58092;BME280;43896;48.178;11.578;2024-03-07T08:16:33;96085.00;;;5.49;68.70
58092;BME280;43896;48.178;11.578;2024-03-07T08:18:59;96107.97;;;4.87;71.28
58092;BME280;43896;48.178;11.578;2024-03-07T08:21:24;96088.72;;;5.79;69.19
58092;BME280;43896;48.178;11.578;2024-03-07T08:23:50;96027.22;;;4.18;72.59
58092;BME280;43896;48.178;11.578;2024-03-07T08:26:15;96104.38;;;5.90;68.91
58092;BME280;43896;48.178;11.578;2024-03-07T08:28:43;96107.09;;;6.32;67.39
58092;BME280;43896;48.178;11.578;2024-03-07T08:31:09;96094.63;;;6.36;67.82
58092;BME280;43896;48.178;11.578;2024-03-07T08:33:34;96100.66;;;6.69;66.26
58092;BME280;43896;48.178;11.578;2024-03-07T08:36:00;96088.03;;;6.20;66.85
58092;BME280;43896;48.178;11.578;2024-03-07T08:38:26;96009.88;;;6.29;65.43
58092;BME280;43896;48.178;11.578;2024-03-07T08:40:51;96067.16;;;5.77;67.79
58092;BME280;43896;48.178;11.578;2024-03-07T08:43:17;96094.00;;;6.11;66.46
58092;BME280;43896;48.178;11.578;2024-03-07T08:45:42;96096.44;;;5.80;67.33
58092;BME280;43896;48.178;11.578;2024-03-07T08:48:07;96092.78;;;6.27;66.58
58092;BME280;43896;48.178;11.578;2024-03-07T08:50:36;96065.75;;;5.73;67.30
58092;BME280;43896;48.178;11.578;2024-03-07T08:53:03;96102.13;;;5.86;67.68
58092;BME280;43896;48.178;11.578;2024-03-07T08:55:29;96109.91;;;6.08;67.65
58092;BME280;43896;48.178;11.578;2024-03-07T08:57:56;96034.78;;;5.68;66.91
58092;BME280;43896;48.178;11.578;2024-03-07T09:00:27;96065.09;;;5.03;69.77
58092;BME280;43896;48.178;11.578;2024-03-07T09:02:56;96091.72;;;6.29;67.50
58092;BME280;43896;48.178;11.578;2024-03-07T09:05:29;96008.47;;;5.60;66.64
58092;BME280;43896;48.178;11.578;2024-03-07T09:07:57;96008.38;;;4.84;68.61
58092;BME280;43896;48.178;11.578;2024-03-07T09:10:25;95975.53;;;4.93;67.59
58092;BME280;43896;48.178;11.578;2024-03-07T09:12:51;96048.59;;;4.57;68.98
58092;BME280;43896;48.178;11.578;2024-03-07T09:15:18;96088.09;;;5.20;68.69
58092;BME280;43896;48.178;11.578;2024-03-07T09:17:44;96060.34;;;4.74;70.03
58092;BME280;43896;48.178;11.578;2024-03-07T09:20:11;95963.22;;;5.06;68.02
58092;BME280;43896;48.178;11.578;2024-03-07T09:22:43;96008.41;;;6.15;66.05
58092;BME280;43896;48.178;11.578;2024-03-07T09:25:09;95956.00;;;4.87;66.75
58092;BME280;43896;48.178;11.578;2024-03-07T09:27:35;96033.19;;;5.44;66.36
58092;BME280;43896;48.178;11.578;2024-03-07T09:30:01;95997.06;;;4.27;68.97
58092;BME280;43896;48.178;11.578;2024-03-07T09:32:26;95974.91;;;4.10;70.99
58092;BME280;43896;48.178;11.578;2024-03-07T09:34:53;96023.88;;;4.97;68.54
58092;BME280;43896;48.178;11.578;2024-03-07T09:37:18;95961.22;;;4.76;68.66
58092;BME280;43896;48.178;11.578;2024-03-07T09:39:46;96092.75;;;6.06;66.21
58092;BME280;43896;48.178;11.578;2024-03-07T09:42:15;95990.16;;;5.50;66.41
58092;BME280;43896;48.178;11.578;2024-03-07T09:44:45;96040.59;;;5.72;66.50
58092;BME280;43896;48.178;11.578;2024-03-07T09:47:12;96009.47;;;5.48;66.39
58092;BME280;43896;48.178;11.578;2024-03-07T09:49:38;96014.47;;;5.39;68.47
58092;BME280;43896;48.178;11.578;2024-03-07T09:52:06;96087.13;;;5.55;68.69
58092;BME280;43896;48.178;11.578;2024-03-07T09:54:34;95986.56;;;5.07;69.02
58092;BME280;43896;48.178;11.578;2024-03-07T09:57:05;96033.47;;;5.19;70.18
58092;BME280;43896;48.178;11.578;2024-03-07T09:59:38;96012.38;;;5.22;69.58
58092;BME280;43896;48.178;11.578;2024-03-07T10:02:05;96020.03;;;5.90;67.74
58092;BME280;43896;48.178;11.578;2024-03-07T10:04:42;96088.50;;;6.26;67.30
58092;BME280;43896;48.178;11.578;2024-03-07T10:07:11;96072.53;;;6.61;66.94
58092;BME280;43896;48.178;11.578;2024-03-07T10:09:39;95983.28;;;5.49;68.07
58092;BME280;43896;48.178;11.578;2024-03-07T10:12:06;96001.47;;;6.46;65.16
58092;BME280;43896;48.178;11.578;2024-03-07T10:14:35;96002.94;;;5.53;69.08
58092;BME280;43896;48.178;11.578;2024-03-07T10:17:02;96001.16;;;5.54;69.36
58092;BME280;43896;48.178;11.578;2024-03-07T10:19:28;96057.47;;;5.68;70.11
58092;BME280;43896;48.178;11.578;2024-03-07T10:21:57;95991.03;;;5.93;68.95
58092;BME280;43896;48.178;11.578;2024-03-07T10:24:27;96082.41;;;6.57;67.46
58092;BME280;43896;48.178;11.578;2024-03-07T10:26:54;96069.50;;;6.24;69.15
58092;BME280;43896;48.178;11.578;2024-03-07T10:29:23;96037.22;;;6.67;64.45
58092;BME280;43896;48.178;11.578;2024-03-07T10:31:49;96074.47;;;7.51;64.19
58092;BME280;43896;48.178;11.578;2024-03-07T10:34:15;96065.16;;;7.68;61.59
58092;BME280;43896;48.178;11.578;2024-03-07T10:36:42;96062.75;;;8.25;60.67
58092;BME280;43896;48.178;11.578;2024-03-07T10:39:08;96056.66;;;8.15;61.91
58092;BME280;43896;48.178;11.578;2024-03-07T10:41:49;96034.16;;;9.18;59.31
58092;BME280;43896;48.178;11.578;2024-03-07T10:44:23;96068.34;;;8.79;59.10
58092;BME280;43896;48.178;11.578;2024-03-07T10:46:54;96019.13;;;8.63;57.10
58092;BME280;43896;48.178;11.578;2024-03-07T10:49:20;96027.44;;;8.10;60.05
58092;BME280;43896;48.178;11.578;2024-03-07T10:52:14;96059.53;;;8.71;58.17
58092;BME280;43896;48.178;11.578;2024-03-07T10:54:56;96024.41;;;7.95;61.21
58092;BME280;43896;48.178;11.578;2024-03-07T10:57:45;96057.88;;;8.70;58.47
58092;BME280;43896;48.178;11.578;2024-03-07T11:00:14;96023.00;;;8.40;58.93
58092;BME280;43896;48.178;11.578;2024-03-07T11:02:56;96058.28;;;7.87;58.75
58092;BME280;43896;48.178;11.578;2024-03-07T11:05:28;96028.41;;;7.89;57.95
58092;BME280;43896;48.178;11.578;2024-03-07T11:08:01;96036.47;;;7.57;58.55
58092;BME280;43896;48.178;11.578;2024-03-07T11:10:36;96060.50;;;7.92;59.58
58092;BME280;43896;48.178;11.578;2024-03-07T11:13:04;96057.75;;;8.42;57.83
58092;BME280;43896;48.178;11.578;2024-03-07T11:15:30;96039.44;;;7.33;60.51
58092;BME280;43896;48.178;11.578;2024-03-07T11:17:57;95999.72;;;8.17;59.16
58092;BME280;43896;48.178;11.578;2024-03-07T11:20:25;96033.84;;;7.07;61.55
58092;BME280;43896;48.178;11.578;2024-03-07T11:22:51;96050.59;;;6.94;62.41
58092;BME280;43896;48.178;11.578;2024-03-07T11:25:21;96051.09;;;6.88;62.53
58092;BME280;43896;48.178;11.578;2024-03-07T11:27:59;96037.41;;;7.06;62.75
58092;BME280;43896;48.178;11.578;2024-03-07T11:30:26;96030.31;;;8.26;60.02
58092;BME280;43896;48.178;11.578;2024-03-07T11:32:53;96016.13;;;8.00;58.84
58092;BME280;43896;48.178;11.578;2024-03-07T11:35:19;96024.13;;;8.37;58.60
58092;BME280;43896;48.178;11.578;2024-03-07T11:37:57;96022.84;;;7.63;60.75
58092;BME280;43896;48.178;11.578;2024-03-07T11:42:50;96021.91;;;7.14;62.65
58092;BME280;43896;48.178;11.578;2024-03-07T11:45:18;96020.88;;;7.46;61.06
58092;BME280;43896;48.178;11.578;2024-03-07T11:47:55;96004.13;;;8.07;59.33
58092;BME280;43896;48.178;11.578;2024-03-07T11:50:28;95996.47;;;7.36;61.43
58092;BME280;43896;48.178;11.578;2024-03-07T11:52:55;95967.06;;;7.82;60.41
58092;BME280;43896;48.178;11.578;2024-03-07T11:55:22;96002.34;;;8.07;59.55
58092;BME280;43896;48.178;11.578;2024-03-07T11:57:48;95952.56;;;6.89;62.74
58092;BME280;43896;48.178;11.578;2024-03-07T12:00:14;95983.13;;;7.29;61.94
58092;BME280;43896;48.178;11.578;2024-03-07T12:02:40;95971.72;;;7.59;60.43
58092;BME280;43896;48.178;11.578;2024-03-07T12:05:08;95919.50;;;7.38;59.35
58092;BME280;43896;48.178;11.578;2024-03-07T12:07:34;95990.78;;;8.10;58.67
58092;BME280;43896;48.178;11.578;2024-03-07T12:10:01;95991.03;;;7.68;59.52
58092;BME280;43896;48.178;11.578;2024-03-07T12:12:29;95980.13;;;7.53;59.97
58092;BME280;43896;48.178;11.578;2024-03-07T12:14:55;95985.22;;;7.64;58.06
58092;BME280;43896;48.178;11.578;2024-03-07T12:17:21;95953.69;;;6.96;59.70
58092;BME280;43896;48.178;11.578;2024-03-07T12:19:47;95966.50;;;6.99;60.16
58092;BME280;43896;48.178;11.578;2024-03-07T12:22:13;95989.81;;;7.12;60.13
58092;BME280;43896;48.178;11.578;2024-03-07T12:24:39;95977.38;;;7.45;60.59
58092;BME280;43896;48.178;11.578;2024-03-07T12:27:12;95978.63;;;7.60;58.66
58092;BME280;43896;48.178;11.578;2024-03-07T12:29:38;95986.06;;;8.43;55.44
58092;BME280;43896;48.178;11.578;2024-03-07T12:32:07;95935.09;;;8.08;55.26
58092;BME280;43896;48.178;11.578;2024-03-07T12:34:43;95968.00;;;7.72;56.81
58092;BME280;43896;48.178;11.578;2024-03-07T12:37:11;95948.28;;;8.16;56.63
58092;BME280;43896;48.178;11.578;2024-03-07T12:39:41;95980.00;;;8.03;55.31
58092;BME280;43896;48.178;11.578;2024-03-07T12:42:15;95925.44;;;7.60;56.83
58092;BME280;43896;48.178;11.578;2024-03-07T12:44:42;95934.34;;;7.08;58.26
58092;BME280;43896;48.178;11.578;2024-03-07T12:47:15;95961.78;;;7.43;57.87
58092;BME280;43896;48.178;11.578;2024-03-07T12:49:44;95953.41;;;8.08;56.17
58092;BME280;43896;48.178;11.578;2024-03-07T12:52:11;95968.03;;;7.62;57.49
58092;BME280;43896;48.178;11.578;2024-03-07T12:54:40;95959.88;;;7.65;58.66
58092;BME280;43896;48.178;11.578;2024-03-07T12:57:09;95965.25;;;6.93;60.46
58092;BME280;43896;48.178;11.578;2024-03-07T12:59:36;95913.50;;;6.47;61.63
58092;BME280;43896;48.178;11.578;2024-03-07T13:02:03;95958.69;;;7.09;61.14